Costa Marques, Brazil
Current Conditions -  °F | °C
As of 3:00 PM on Thursday 23 Oct 2014 (Local Time) from SLMG Reporting Station
Thunderstorm Thunderstorm  
Wind Chill: 95°   Ceiling: 20000
Heat Index: 103°   Visibility: 4mi
Dew Point: 72°   Wind: 17mph
Humidity: 47%   Direction: 90°E
Pressure: 29.74"   Gusts: NA
Location:  12.45°S, 64.23°W
Report Text: SLMG 231900Z 09015KT 6000 TS VCSH SCT017 FEW023CB BKN200 35/22 Q1007
Loading
Personal Weather Stations






























Interactive Weather Map
Tropical Storm Tracking
New forecast layout! Learn more

10-Day Weather Forecast

Advertisements
Track Severe Weather on mobile